Euskara    
Meteorología y climatología de Navarra
Datos de la estación - Meteo Navarra

Estación de Pamplona GN

Altitud 455 m.


Datos desde el 23/02/2021 hasta el 24/02/2021 en horario solar
Los datos son PROVISIONALES

Anterior Página 1 de 1 Siguiente Descargar: Formato para Excel 2000 o superior   Formato csv   Formato para OpenOffice Calc
Fecha Temperatura Humedad relativa Radiación global Insolación Precipitación Vel. viento 10 m Vel. viento 10 m Dir. viento 10 m
°C % W/m² s l/m² m/s km/h °
23/02/2021 0:00 5.9 95 0.0 0 0.0 1.1 3.8 77
23/02/2021 0:10 5.8 95 0.0 0 0.0 0.1 0.2 91
23/02/2021 0:20 5.8 95 0.0 0 0.0 1.9 6.8 102
23/02/2021 0:30 5.8 95 0.0 0 0.0 1.8 6.4 112
23/02/2021 0:40 5.9 95 0.0 0 0.0 0.9 3.3 141
23/02/2021 0:50 5.7 95 0.0 0 0.0 0.3 1.2 53
23/02/2021 1:00 5.5 95 0.0 0 0.0 0.0 0.0 28
23/02/2021 1:10 5.6 95 0.0 0 0.0 0.2 0.6 129
23/02/2021 1:20 5.8 96 0.0 0 0.0 1.1 3.9 258
23/02/2021 1:30 6.0 95 0.0 0 0.0 1.0 3.4 321
23/02/2021 1:40 6.0 95 0.0 0 0.0 1.4 5.0 275
23/02/2021 1:50 6.2 95 0.0 0 0.0 0.3 1.0 308
23/02/2021 2:00 6.1 95 0.0 0 0.0 0.7 2.3 2
23/02/2021 2:10 6.1 96 0.0 0 0.0 0.0 0.0 0
23/02/2021 2:20 6.1 95 0.0 0 0.0 0.0 0.0 41
23/02/2021 2:30 6.2 95 0.0 0 0.0 0.3 0.9 52
23/02/2021 2:40 6.2 95 0.0 0 0.0 0.1 0.4 69
23/02/2021 2:50 6.3 95 0.0 0 0.0 0.0 0.0 66
23/02/2021 3:00 6.2 95 0.0 0 0.0 0.8 3.0 68
23/02/2021 3:10 6.2 96 0.0 0 0.0 0.4 1.3 89
23/02/2021 3:20 6.3 96 0.0 0 0.0 0.2 0.7 68
23/02/2021 3:30 6.2 96 0.0 0 0.0 0.2 0.6 86
23/02/2021 3:40 6.3 96 0.0 0 0.0 0.0 0.0 111
23/02/2021 3:50 6.3 96 0.0 0 0.0 0.1 0.4 112
23/02/2021 4:00 6.4 95 0.0 0 0.0 0.0 0.0 0
23/02/2021 4:10 6.5 95 0.0 0 0.0 0.3 1.0 88
23/02/2021 4:20 6.5 96 0.0 0 0.0 0.2 0.6 79
23/02/2021 4:30 6.5 95 0.0 0 0.0 0.0 0.1 137
23/02/2021 4:40 6.6 95 0.0 0 0.0 0.6 2.1 112
23/02/2021 4:50 6.9 93 0.0 0 0.0 0.9 3.3 157
23/02/2021 5:00 7.1 92 0.0 0 0.0 0.8 2.9 112
23/02/2021 5:10 6.9 93 0.0 0 0.0 0.1 0.4 41
23/02/2021 5:20 6.8 94 0.0 0 0.0 0.4 1.3 53
23/02/2021 5:30 6.7 94 0.0 0 0.0 0.3 1.2 48
23/02/2021 5:40 6.7 94 0.0 0 0.0 0.5 1.9 34
23/02/2021 5:50 6.8 94 0.0 0 0.0 0.8 2.8 71
23/02/2021 6:00 6.8 94 0.0 0 0.0 0.4 1.5 53
23/02/2021 6:10 6.8 94 0.0 0 0.0 0.7 2.7 54
23/02/2021 6:20 6.7 94 0.0 0 0.0 0.0 0.1 41
23/02/2021 6:30 6.8 94 0.0 0 0.0 0.3 0.9 9
23/02/2021 6:40 6.9 93 0.0 0 0.0 0.3 0.9 322
23/02/2021 6:50 7.0 93 0.0 0 0.0 0.4 1.4 82
23/02/2021 7:00 7.1 91 0.0 0 0.0 1.2 4.4 174
23/02/2021 7:10 7.7 83 0.0 0 0.0 2.0 7.1 150
23/02/2021 7:20 7.9 80 1.0 0 0.0 2.2 8.0 154
23/02/2021 7:30 7.9 81 20.8 0 0.0 0.9 3.3 165
23/02/2021 7:40 8.1 80 26.2 0 0.0 2.2 7.9 197
23/02/2021 7:50 8.3 78 69.3 224 0.0 3.0 10.7 191
23/02/2021 8:00 8.8 76 178.0 600 0.0 3.6 12.9 182
23/02/2021 8:10 9.2 75 196.9 600 0.0 3.5 12.5 192
23/02/2021 8:20 9.3 74 212.4 600 0.0 3.7 13.3 198
23/02/2021 8:30 9.6 74 295.7 600 0.0 2.9 10.5 189
23/02/2021 8:40 10.2 72 341.0 600 0.0 3.5 12.4 163
23/02/2021 8:50 10.4 71 312.8 594 0.0 2.9 10.6 156
23/02/2021 9:00 10.6 72 321.9 554 0.0 2.3 8.4 139
23/02/2021 9:10 11.0 71 462.5 600 0.0 1.8 6.4 152
23/02/2021 9:20 11.5 70 514.7 600 0.0 2.4 8.7 142
23/02/2021 9:30 11.5 68 485.0 600 0.0 3.0 10.9 169
23/02/2021 9:40 11.9 67 482.9 600 0.0 3.3 11.7 171
23/02/2021 9:50 11.7 68 473.5 600 0.0 3.2 11.5 153
23/02/2021 10:00 11.6 67 497.0 600 0.0 4.4 15.8 158
23/02/2021 10:10 11.5 67 519.8 600 0.1 4.4 15.7 149
23/02/2021 10:20 11.7 67 538.1 600 0.0 3.9 14.0 147
23/02/2021 10:30 11.7 67 557.0 600 0.0 4.2 15.2 142
23/02/2021 10:40 11.7 66 577.1 600 0.0 5.2 18.7 145
23/02/2021 10:50 11.7 67 591.1 600 0.0 3.9 14.0 147
23/02/2021 11:00 12.0 65 605.1 600 0.0 4.4 15.7 140
23/02/2021 11:10 12.0 65 617.5 600 0.0 4.7 17.0 137
23/02/2021 11:20 12.3 63 620.3 600 0.0 4.2 14.9 141
23/02/2021 11:30 12.5 62 641.2 600 0.0 4.0 14.5 133
23/02/2021 11:40 12.8 61 651.3 600 0.0 4.3 15.6 141
23/02/2021 11:50 12.9 62 642.7 586 0.0 3.3 11.9 139
23/02/2021 12:00 13.2 61 660.6 600 0.0 3.2 11.4 146
23/02/2021 12:10 13.3 60 656.0 592 0.0 4.4 15.9 128
23/02/2021 12:20 13.1 60 673.5 600 0.0 5.4 19.5 129
23/02/2021 12:30 13.1 60 577.4 492 0.0 6.0 21.5 127
23/02/2021 12:40 13.1 61 560.0 484 0.0 5.8 20.7 128
23/02/2021 12:50 13.2 60 535.3 430 0.0 5.2 18.8 133
23/02/2021 13:00 13.5 60 641.3 574 0.0 4.3 15.4 140
23/02/2021 13:10 13.9 58 629.3 578 0.0 4.0 14.3 130
23/02/2021 13:20 13.9 57 575.3 524 0.0 5.4 19.3 138
23/02/2021 13:30 13.9 57 590.6 560 0.0 5.2 18.7 130
23/02/2021 13:40 14.1 58 610.8 600 0.0 4.4 16.0 127
23/02/2021 13:50 14.0 58 603.3 600 0.0 5.6 20.0 126
23/02/2021 14:00 14.1 57 590.5 600 0.0 6.0 21.5 121
23/02/2021 14:10 14.1 56 575.4 600 0.0 6.2 22.5 122
23/02/2021 14:20 14.2 55 543.0 580 0.0 5.8 20.8 125
23/02/2021 14:30 14.3 55 505.1 564 0.0 6.6 23.8 130
23/02/2021 14:40 14.3 55 510.5 600 0.0 6.1 21.9 131
23/02/2021 14:50 14.4 55 485.0 600 0.0 6.1 21.8 125
23/02/2021 15:00 14.3 56 461.6 600 0.0 5.5 19.9 131
23/02/2021 15:10 14.4 56 437.1 600 0.0 6.0 21.5 127
23/02/2021 15:20 14.4 55 408.9 600 0.0 6.2 22.5 128
23/02/2021 15:30 14.4 55 381.9 600 0.0 5.7 20.6 125
23/02/2021 15:40 14.4 55 346.8 600 0.0 5.9 21.1 128
23/02/2021 15:50 14.3 56 325.8 600 0.0 6.3 22.8 129
23/02/2021 16:00 14.3 55 297.0 600 0.0 5.8 20.7 130
23/02/2021 16:10 14.3 54 266.3 600 0.0 5.0 17.9 128
23/02/2021 16:20 14.4 55 233.2 600 0.0 5.2 18.6 130
23/02/2021 16:30 14.3 55 201.9 600 0.0 3.6 12.9 128
23/02/2021 16:40 14.3 55 175.8 600 0.0 3.6 12.9 131
23/02/2021 16:50 14.3 55 142.1 600 0.0 4.1 14.8 139
23/02/2021 17:00 14.2 54 106.2 600 0.0 3.1 11.3 136
23/02/2021 17:10 14.1 55 77.5 600 0.0 4.0 14.3 142
23/02/2021 17:20 14.0 55 59.5 600 0.0 3.6 13.0 137
23/02/2021 17:30 13.8 56 35.3 374 0.0 3.8 13.8 131
23/02/2021 17:40 13.6 57 7.7 0 0.0 3.5 12.7 145
23/02/2021 17:50 13.4 59 0.0 0 0.0 2.8 10.0 144
23/02/2021 18:00 13.3 59 0.0 0 0.0 3.7 13.2 139
23/02/2021 18:10 13.2 59 0.0 0 0.0 3.6 12.9 136
23/02/2021 18:20 13.1 60 0.0 0 0.0 3.5 12.7 134
23/02/2021 18:30 13.1 60 0.0 0 0.0 3.1 11.1 130
23/02/2021 18:40 12.7 63 0.0 0 0.0 2.7 9.8 116
23/02/2021 18:50 12.3 67 0.0 0 0.0 3.2 11.6 113
23/02/2021 19:00 12.0 69 0.0 0 0.0 3.3 12.0 115
23/02/2021 19:10 11.9 70 0.0 0 0.0 3.2 11.4 113
23/02/2021 19:20 11.8 71 0.0 0 0.0 2.6 9.3 114
23/02/2021 19:30 11.8 71 0.0 0 0.0 2.6 9.3 124
23/02/2021 19:40 11.6 72 0.0 0 0.0 1.7 6.0 126
23/02/2021 19:50 11.8 69 0.0 0 0.0 2.4 8.5 118
23/02/2021 20:00 11.7 69 0.0 0 0.0 2.1 7.5 121
23/02/2021 20:10 11.7 69 0.0 0 0.0 2.5 8.9 137
23/02/2021 20:20 11.8 69 0.0 0 0.0 2.5 9.1 135
23/02/2021 20:30 11.9 67 0.0 0 0.0 3.3 11.7 137
23/02/2021 20:40 11.8 67 0.0 0 0.0 2.4 8.7 138
23/02/2021 20:50 11.9 66 0.0 0 0.0 2.8 10.2 144
23/02/2021 21:00 11.9 65 0.0 0 0.0 2.3 8.3 148
23/02/2021 21:10 11.9 65 0.0 0 0.0 2.5 8.9 142
23/02/2021 21:20 11.9 65 0.0 0 0.0 2.6 9.4 146
23/02/2021 21:30 11.9 66 0.0 0 0.0 2.6 9.2 147
23/02/2021 21:40 11.8 66 0.0 0 0.0 2.2 8.0 147
23/02/2021 21:50 11.8 66 0.0 0 0.0 2.9 10.3 144
23/02/2021 22:00 11.9 66 0.0 0 0.0 2.8 10.0 157
23/02/2021 22:10 11.9 66 0.0 0 0.0 3.3 11.9 167
23/02/2021 22:20 12.0 66 0.0 0 0.0 3.3 11.7 163
23/02/2021 22:30 12.0 66 0.0 0 0.0 3.5 12.5 167
23/02/2021 22:40 12.0 66 0.0 0 0.0 3.1 11.2 172
23/02/2021 22:50 12.0 67 0.0 0 0.0 3.5 12.5 181
23/02/2021 23:00 12.1 67 0.0 0 0.0 3.9 14.1 167
23/02/2021 23:10 12.1 67 0.0 0 0.0 4.0 14.4 172
23/02/2021 23:20 12.1 68 0.0 0 0.0 3.7 13.4 157
23/02/2021 23:30 12.2 68 0.0 0 0.0 4.0 14.3 157
23/02/2021 23:40 12.2 69 0.0 0 0.0 4.3 15.4 157
23/02/2021 23:50 12.0 70 0.0 0 0.0 3.6 13.0 149
Anterior Página 1 de 1 Siguiente

NOTA: Tipo de datos según el color:
   - Valores diarios o 10 minutos correctos
   - Valores diarios calculados a partir de un número de datos 10 minutos menor que 144 y mayor que 120, o de un número de datos semihorarios menor que 48 y mayor que 40 (caso de las estaciones de INTIA Y Ministerio)
   - Valores diez minutos estimados


Contacto        Enlaces        Aviso legal